createdAt,value
2018-03-29T02:25:24.245Z,99394.53
2018-03-29T02:27:51.761Z,99397.63
2018-03-29T02:30:19.239Z,99394.29
2018-03-29T02:32:46.674Z,99403.25
2018-03-29T02:35:14.114Z,99399.53
2018-03-29T02:37:41.591Z,99397.05
2018-03-29T02:40:09.037Z,99402.91
2018-03-29T02:42:36.670Z,99403.95
2018-03-29T02:45:04.118Z,99409.05
2018-03-29T02:47:31.554Z,99405.56
2018-03-29T02:49:59.035Z,99403.20
2018-03-29T02:52:26.479Z,99410.73
2018-03-29T02:54:53.994Z,99404.44
2018-03-29T02:57:21.439Z,99406.97
2018-03-29T02:59:48.885Z,99405.56
2018-03-29T03:02:16.362Z,99405.95
2018-03-29T03:04:43.797Z,99403.02
2018-03-29T03:07:11.409Z,99400.80
2018-03-29T03:09:38.845Z,99409.92
2018-03-29T03:12:06.297Z,99411.05
2018-03-29T03:14:33.758Z,99410.58
2018-03-29T03:17:01.195Z,99417.70
2018-03-29T03:19:28.687Z,99419.73
2018-03-29T03:21:56.145Z,99426.48
2018-03-29T03:24:23.587Z,99431.55
2018-03-29T03:26:51.214Z,99433.67
2018-03-29T03:29:18.653Z,99441.79
2018-03-29T03:31:46.130Z,99437.56
2018-03-29T03:34:13.575Z,99447.34
2018-03-29T03:36:41.058Z,99452.19
2018-03-29T03:39:08.645Z,99444.65
2018-03-29T03:41:36.085Z,99442.88
2018-03-29T03:44:03.561Z,99438.52
2018-03-29T03:46:30.993Z,99436.41
2018-03-29T03:48:58.443Z,99444.55
2018-03-29T03:51:25.939Z,99447.50
2018-03-29T03:53:53.378Z,99450.03
2018-03-29T03:56:21.269Z,99460.81
2018-03-29T03:58:48.729Z,99455.08
2018-03-29T04:01:16.179Z,99454.16
2018-03-29T04:03:43.645Z,99452.07
2018-03-29T04:06:11.093Z,99457.11
2018-03-29T04:08:38.822Z,99460.82
2018-03-29T04:11:06.281Z,99459.48
2018-03-29T04:13:33.747Z,99458.02
2018-03-29T04:16:01.212Z,99465.53
2018-03-29T04:18:28.677Z,99461.48
2018-03-29T04:20:56.152Z,99466.89
2018-03-29T04:23:23.639Z,99457.49
2018-03-29T04:25:51.093Z,99461.30
2018-03-29T04:28:18.533Z,99464.38
2018-03-29T04:30:45.979Z,99463.86
2018-03-29T04:33:13.718Z,99472.16
2018-03-29T04:35:41.151Z,99469.89
2018-03-29T04:38:08.589Z,99470.45
2018-03-29T04:40:36.094Z,99468.83
2018-03-29T04:43:03.528Z,99480.28
2018-03-29T04:45:31.181Z,99481.08
2018-03-29T04:47:58.617Z,99480.52
2018-03-29T04:50:26.058Z,99489.37
2018-03-29T04:52:53.570Z,99489.44
2018-03-29T04:55:21.006Z,99486.09
2018-03-29T04:57:48.495Z,99490.48
2018-03-29T05:00:15.951Z,99492.50
2018-03-29T05:02:43.397Z,99497.45
2018-03-29T05:05:10.870Z,99496.31
2018-03-29T05:07:38.409Z,99496.36
2018-03-29T05:10:05.972Z,99497.19
2018-03-29T05:12:33.412Z,99500.78
2018-03-29T05:15:00.849Z,99497.30
2018-03-29T05:17:28.322Z,99500.96
2018-03-29T05:19:55.770Z,99502.70
2018-03-29T05:22:23.476Z,99504.52
2018-03-29T05:24:50.917Z,99520.34
2018-03-29T05:27:19.736Z,99520.64
2018-03-29T05:29:47.197Z,99522.23
2018-03-29T05:32:14.653Z,99522.20
2018-03-29T05:34:42.321Z,99519.75
2018-03-29T05:37:09.765Z,99516.97
2018-03-29T05:39:37.213Z,99521.79
2018-03-29T05:42:04.694Z,99517.34
2018-03-29T05:44:32.130Z,99526.30
2018-03-29T05:46:59.767Z,99526.36
2018-03-29T05:49:27.222Z,99528.39
2018-03-29T05:51:54.657Z,99536.74
2018-03-29T05:54:22.121Z,99541.75
2018-03-29T05:56:49.557Z,99546.14
2018-03-29T05:59:17.129Z,99548.95
2018-03-29T06:01:44.569Z,99553.16
2018-03-29T06:04:12.025Z,99554.52
2018-03-29T06:06:39.481Z,99549.27
2018-03-29T06:09:06.917Z,99549.45
2018-03-29T06:11:34.893Z,99548.38
2018-03-29T06:14:07.333Z,99547.06
2018-03-29T06:16:40.661Z,99546.83
2018-03-29T06:19:09.009Z,99552.86
2018-03-29T06:21:36.455Z,99556.02
2018-03-29T06:24:03.913Z,99549.20
2018-03-29T06:26:31.369Z,99545.14
2018-03-29T06:28:59.043Z,99543.61
2018-03-29T06:31:26.505Z,99547.73
2018-03-29T06:33:53.943Z,99550.87
2018-03-29T06:36:21.435Z,99556.09
2018-03-29T06:38:48.879Z,99556.92
2018-03-29T06:41:16.344Z,99554.41
2018-03-29T06:43:43.798Z,99556.20
2018-03-29T06:46:11.239Z,99553.03
2018-03-29T06:48:38.705Z,99554.37
2018-03-29T06:51:06.158Z,99550.67
2018-03-29T06:53:34.026Z,99554.48
2018-03-29T06:56:01.474Z,99554.10
2018-03-29T06:58:28.920Z,99558.24
2018-03-29T07:00:56.421Z,99542.42
2018-03-29T07:03:23.862Z,99539.44
2018-03-29T07:05:51.490Z,99542.02
2018-03-29T07:08:18.937Z,99538.69
2018-03-29T07:10:46.373Z,99538.47
2018-03-29T07:13:13.979Z,99536.45
2018-03-29T07:15:41.446Z,99541.46
2018-03-29T07:18:09.142Z,99545.54
2018-03-29T07:20:36.593Z,99547.17
2018-03-29T07:23:04.046Z,99553.09
2018-03-29T07:25:31.517Z,99559.45
2018-03-29T07:27:59.000Z,99565.81
2018-03-29T07:30:26.586Z,99574.33
2018-03-29T07:32:54.040Z,99575.57
2018-03-29T07:35:21.527Z,99586.39
2018-03-29T07:37:49.006Z,99584.27
2018-03-29T07:40:16.446Z,99587.59
2018-03-29T07:42:44.363Z,99589.59
2018-03-29T07:45:11.814Z,99589.78
2018-03-29T07:47:39.266Z,99595.84
2018-03-29T07:50:06.780Z,99591.28
2018-03-29T07:52:34.225Z,99592.38
2018-03-29T07:55:01.797Z,99597.27
2018-03-29T07:57:29.257Z,99597.61
2018-03-29T07:59:56.701Z,99591.77
2018-03-29T08:02:24.178Z,99595.33
2018-03-29T08:04:51.665Z,99596.66
2018-03-29T08:07:19.137Z,99600.60
2018-03-29T08:09:46.573Z,99602.56
2018-03-29T08:12:14.029Z,99603.35
2018-03-29T08:14:41.486Z,99604.42
2018-03-29T08:17:08.945Z,99602.08
2018-03-29T08:19:36.590Z,99595.46
2018-03-29T08:22:04.450Z,99598.67
2018-03-29T08:24:31.899Z,99592.44
2018-03-29T08:26:59.381Z,99594.49
2018-03-29T08:29:26.835Z,99592.25
2018-03-29T08:31:54.337Z,99594.03
2018-03-29T08:34:21.778Z,99592.77
2018-03-29T08:36:49.217Z,99595.38
2018-03-29T08:39:16.690Z,99591.03
2018-03-29T08:41:44.121Z,99589.53
2018-03-29T08:44:11.589Z,99584.02
2018-03-29T08:46:41.989Z,99580.59
2018-03-29T08:49:09.529Z,99575.43
2018-03-29T08:51:36.985Z,99581.00
2018-03-29T08:54:04.421Z,99578.34
2018-03-29T08:56:32.148Z,99578.34
2018-03-29T08:59:03.658Z,99576.55
2018-03-29T09:01:31.173Z,99575.75
2018-03-29T09:03:58.649Z,99577.31
2018-03-29T09:06:27.868Z,99578.00
2018-03-29T09:08:55.417Z,99583.87
2018-03-29T09:11:22.878Z,99584.52
2018-03-29T09:13:50.487Z,99581.77
2018-03-29T09:16:17.925Z,99583.09
2018-03-29T09:18:45.382Z,99585.03
2018-03-29T09:21:12.847Z,99574.28
2018-03-29T09:23:40.289Z,99576.05
2018-03-29T09:26:07.791Z,99572.61
2018-03-29T09:28:35.233Z,99575.00
2018-03-29T09:31:03.614Z,99567.95
2018-03-29T09:33:32.779Z,99572.75
2018-03-29T09:36:00.343Z,99578.82
2018-03-29T09:38:28.130Z,99571.71
2018-03-29T09:40:55.574Z,99572.38
2018-03-29T09:43:23.013Z,99568.58
2018-03-29T09:45:50.485Z,99559.45
2018-03-29T09:48:17.928Z,99569.58
2018-03-29T09:50:45.398Z,99563.03
2018-03-29T09:53:12.842Z,99560.27
2018-03-29T09:55:40.283Z,99555.09
2018-03-29T09:58:08.237Z,99560.41
2018-03-29T10:00:35.701Z,99556.86
2018-03-29T10:03:08.893Z,99562.01
2018-03-29T10:05:38.277Z,99556.25
2018-03-29T10:08:05.784Z,99549.29
2018-03-29T10:10:33.277Z,99552.94
2018-03-29T10:13:00.742Z,99551.14
2018-03-29T10:15:28.462Z,99555.28
2018-03-29T10:17:55.907Z,99559.95
2018-03-29T10:20:23.380Z,99556.83
2018-03-29T10:22:50.857Z,99559.02
2018-03-29T10:25:18.301Z,99564.84
2018-03-29T10:27:45.767Z,99570.24
2018-03-29T10:30:13.278Z,99564.89
2018-03-29T10:32:40.681Z,99561.75
2018-03-29T10:35:08.170Z,99562.38
2018-03-29T10:37:35.609Z,99556.93
2018-03-29T10:40:03.110Z,99555.11
2018-03-29T10:42:30.591Z,99555.92
2018-03-29T10:44:58.028Z,99549.56
2018-03-29T10:47:25.494Z,99551.03
2018-03-29T10:49:52.941Z,99545.57
2018-03-29T10:52:20.508Z,99539.86
2018-03-29T10:54:47.965Z,99541.34
2018-03-29T10:57:15.415Z,99538.05
2018-03-29T10:59:42.875Z,99543.97
2018-03-29T11:02:10.502Z,99539.50
2018-03-29T11:04:38.105Z,99544.91
2018-03-29T11:07:05.606Z,99538.25
2018-03-29T11:09:33.063Z,99533.18
2018-03-29T11:12:00.549Z,99521.02
2018-03-29T11:14:27.997Z,99521.71
2018-03-29T11:16:55.718Z,99527.98
2018-03-29T11:19:23.158Z,99513.81
2018-03-29T11:21:50.606Z,99518.83
2018-03-29T11:24:18.085Z,99516.87
2018-03-29T11:26:45.533Z,99517.56
2018-03-29T11:29:13.043Z,99517.12
2018-03-29T11:31:40.485Z,99521.23
2018-03-29T11:34:07.965Z,99523.69
2018-03-29T11:36:35.431Z,99514.42
2018-03-29T11:39:02.905Z,99522.61
2018-03-29T11:41:30.378Z,99517.34
2018-03-29T11:43:57.837Z,99526.77
2018-03-29T11:46:25.278Z,99520.84
2018-03-29T11:48:52.749Z,99525.17
2018-03-29T11:51:20.197Z,99516.66
2018-03-29T11:53:47.994Z,99516.86
2018-03-29T11:56:15.434Z,99519.05
2018-03-29T11:58:42.906Z,99514.09
2018-03-29T12:01:10.374Z,99512.01
2018-03-29T12:03:37.814Z,99505.81
2018-03-29T12:06:05.518Z,99513.37
2018-03-29T12:08:32.966Z,99500.73
2018-03-29T12:11:00.418Z,99512.56
2018-03-29T12:13:27.882Z,99507.48
2018-03-29T12:15:55.338Z,99511.28
2018-03-29T12:18:22.970Z,99509.67
2018-03-29T12:20:50.437Z,99506.30
2018-03-29T12:23:17.882Z,99496.13
2018-03-29T12:25:45.341Z,99494.55
2018-03-29T12:28:12.801Z,99498.59
2018-03-29T12:30:40.421Z,99492.47
2018-03-29T12:33:07.869Z,99488.63
2018-03-29T12:35:35.329Z,99492.48
2018-03-29T12:38:02.785Z,99495.86
2018-03-29T12:40:30.238Z,99494.79
2018-03-29T12:42:57.911Z,99489.98
2018-03-29T12:45:25.350Z,99495.26
2018-03-29T12:47:52.798Z,99497.92
2018-03-29T12:50:20.309Z,99497.55
2018-03-29T12:52:47.726Z,99502.69
2018-03-29T12:55:27.005Z,99496.73
2018-03-29T12:58:06.493Z,99493.41
2018-03-29T13:00:34.429Z,99486.80
2018-03-29T13:03:01.904Z,99494.12
2018-03-29T13:05:29.356Z,99491.70
2018-03-29T13:07:56.837Z,99489.30
2018-03-29T13:10:24.282Z,99484.77
2018-03-29T13:12:51.997Z,99480.73
2018-03-29T13:15:19.438Z,99488.59
2018-03-29T13:17:46.921Z,99484.91
2018-03-29T13:20:14.399Z,99480.73
2018-03-29T13:22:41.855Z,99476.78
2018-03-29T13:25:09.460Z,99473.22
2018-03-29T13:27:36.907Z,99477.07
2018-03-29T13:30:04.393Z,99476.26
2018-03-29T13:32:31.855Z,99481.42
2018-03-29T13:34:59.301Z,99481.06
2018-03-29T13:37:26.774Z,99484.58
2018-03-29T13:39:54.210Z,99490.69
2018-03-29T13:42:21.746Z,99486.06
2018-03-29T13:44:49.238Z,99478.00
2018-03-29T13:47:16.656Z,99476.19
2018-03-29T13:49:44.215Z,99464.91
2018-03-29T13:52:11.676Z,99470.81
2018-03-29T13:54:39.120Z,99463.48
2018-03-29T13:57:06.585Z,99455.47
2018-03-29T13:59:34.029Z,99449.05
2018-03-29T14:02:01.905Z,99451.14
2018-03-29T14:04:29.354Z,99453.82
2018-03-29T14:06:56.789Z,99457.17
2018-03-29T14:09:24.255Z,99459.02
2018-03-29T14:11:51.713Z,99455.39
2018-03-29T14:14:19.197Z,99456.38
2018-03-29T14:16:46.665Z,99455.39
2018-03-29T14:19:15.083Z,99454.28
2018-03-29T14:21:42.545Z,99453.02
2018-03-29T14:24:09.989Z,99446.27
2018-03-29T14:26:37.618Z,99448.28
2018-03-29T14:29:05.094Z,99450.70
2018-03-29T14:31:32.557Z,99449.87
2018-03-29T14:34:00.042Z,99447.61
2018-03-29T14:36:27.498Z,99447.20
2018-03-29T14:38:55.165Z,99450.44
2018-03-29T14:41:22.648Z,99446.16
2018-03-29T14:43:50.110Z,99459.02
2018-03-29T14:46:17.630Z,99446.87
2018-03-29T14:48:45.105Z,99443.62
2018-03-29T14:51:12.701Z,99446.59
2018-03-29T14:53:40.150Z,99450.13
2018-03-29T14:56:07.595Z,99448.84
2018-03-29T14:58:35.073Z,99439.79
2018-03-29T15:01:02.545Z,99441.77
2018-03-29T15:03:30.181Z,99438.38
2018-03-29T15:05:57.621Z,99439.18
2018-03-29T15:08:25.065Z,99436.20
2018-03-29T15:10:52.544Z,99438.47
2018-03-29T15:13:19.987Z,99422.77
2018-03-29T15:15:47.473Z,99429.44
2018-03-29T15:18:14.933Z,99425.69
2018-03-29T15:20:42.388Z,99428.64
2018-03-29T15:23:12.580Z,99421.45
2018-03-29T15:25:43.331Z,99423.05
2018-03-29T15:28:11.098Z,99418.88
2018-03-29T15:30:41.795Z,99427.22
2018-03-29T15:33:09.262Z,99422.08
2018-03-29T15:35:36.766Z,99422.30
2018-03-29T15:38:04.242Z,99420.80
2018-03-29T15:40:31.855Z,99412.88
2018-03-29T15:43:01.799Z,99416.21
2018-03-29T15:45:29.294Z,99415.53
2018-03-29T15:47:56.819Z,99415.40
2018-03-29T15:50:24.298Z,99408.81
2018-03-29T15:52:52.270Z,99411.61
2018-03-29T15:55:19.713Z,99410.95
2018-03-29T15:57:47.164Z,99404.52
2018-03-29T16:00:14.621Z,99401.00
2018-03-29T16:02:42.266Z,99396.72
2018-03-29T16:05:09.741Z,99401.49
2018-03-29T16:07:37.193Z,99397.56
2018-03-29T16:10:04.646Z,99400.82
2018-03-29T16:12:32.124Z,99401.80
2018-03-29T16:14:59.579Z,99411.04
2018-03-29T16:17:27.282Z,99407.31
2018-03-29T16:19:54.725Z,99410.89
2018-03-29T16:22:22.173Z,99409.02
2018-03-29T16:24:49.633Z,99417.45
2018-03-29T16:27:17.073Z,99417.86
2018-03-29T16:29:44.738Z,99410.96
2018-03-29T16:32:12.183Z,99411.53
2018-03-29T16:34:39.677Z,99410.36
2018-03-29T16:37:07.149Z,99405.66
2018-03-29T16:39:34.605Z,99416.00
2018-03-29T16:42:02.285Z,99418.97
2018-03-29T16:44:29.759Z,99417.22
2018-03-29T16:46:57.221Z,99419.41
2018-03-29T16:49:24.698Z,99426.81
2018-03-29T16:51:52.155Z,99426.03
2018-03-29T16:54:19.922Z,99420.35
2018-03-29T16:56:47.366Z,99424.70
2018-03-29T16:59:14.813Z,99426.58
2018-03-29T17:01:42.326Z,99430.88
2018-03-29T17:04:09.773Z,99428.61
2018-03-29T17:06:37.234Z,99427.13
2018-03-29T17:09:04.690Z,99435.91
2018-03-29T17:11:32.338Z,99437.59
2018-03-29T17:13:59.781Z,99443.34
2018-03-29T17:16:27.221Z,99440.92
2018-03-29T17:18:54.712Z,99452.64
2018-03-29T17:21:22.161Z,99450.67
2018-03-29T17:23:49.921Z,99455.22
2018-03-29T17:26:17.405Z,99454.38
2018-03-29T17:28:44.847Z,99461.58
2018-03-29T17:31:12.305Z,99464.03
2018-03-29T17:33:39.750Z,99460.61
2018-03-29T17:36:07.364Z,99460.47
2018-03-29T17:38:34.779Z,99463.30
2018-03-29T17:41:02.238Z,99462.55
2018-03-29T17:43:29.705Z,99464.00
2018-03-29T17:45:57.159Z,99470.45
2018-03-29T17:48:24.978Z,99473.02
2018-03-29T17:50:52.417Z,99477.00
2018-03-29T17:53:19.859Z,99479.12
2018-03-29T17:55:47.322Z,99485.30
2018-03-29T17:58:14.765Z,99491.61
2018-03-29T18:00:42.541Z,99495.03
2018-03-29T18:03:10.002Z,99500.61
2018-03-29T18:05:37.454Z,99500.88
2018-03-29T18:08:04.913Z,99507.09
2018-03-29T18:10:32.367Z,99501.84
2018-03-29T18:13:00.036Z,99493.48
2018-03-29T18:15:27.487Z,99502.06
2018-03-29T18:17:54.929Z,99507.80
2018-03-29T18:20:22.429Z,99516.78
2018-03-29T18:22:50.804Z,99501.22
2018-03-29T18:25:18.370Z,99505.69
2018-03-29T18:27:45.814Z,99499.77
2018-03-29T18:30:13.258Z,99506.80
2018-03-29T18:32:40.721Z,99498.39
2018-03-29T18:35:08.174Z,99510.19
2018-03-29T18:37:35.801Z,99508.69
2018-03-29T18:40:03.249Z,99512.61
2018-03-29T18:42:30.717Z,99511.48
2018-03-29T18:44:58.197Z,99517.70
2018-03-29T18:47:25.650Z,99524.22
2018-03-29T18:49:53.125Z,99519.00
2018-03-29T18:52:21.431Z,99527.98
2018-03-29T18:54:48.871Z,99524.98
2018-03-29T18:57:16.354Z,99531.06
2018-03-29T18:59:43.886Z,99535.56
2018-03-29T19:02:12.327Z,99535.00
2018-03-29T19:04:39.975Z,99529.35
2018-03-29T19:07:07.441Z,99520.39
2018-03-29T19:09:34.965Z,99530.63
2018-03-29T19:12:02.421Z,99532.19
2018-03-29T19:14:29.997Z,99530.09
2018-03-29T19:16:57.446Z,99530.44
2018-03-29T19:19:24.904Z,99526.89
2018-03-29T19:21:52.386Z,99529.91
2018-03-29T19:24:20.986Z,99531.56
2018-03-29T19:26:48.606Z,99520.28
2018-03-29T19:29:16.059Z,99521.52
2018-03-29T19:31:43.512Z,99522.80
2018-03-29T19:34:11.103Z,99524.72
2018-03-29T19:36:38.557Z,99526.52
2018-03-29T19:39:06.238Z,99532.12
2018-03-29T19:41:33.726Z,99537.27
2018-03-29T19:44:01.186Z,99542.90
2018-03-29T19:46:28.646Z,99547.18
2018-03-29T19:48:56.102Z,99552.52
2018-03-29T19:51:23.571Z,99566.17
2018-03-29T19:53:51.012Z,99573.95
2018-03-29T19:56:19.462Z,99570.40
2018-03-29T19:58:46.953Z,99568.28
2018-03-29T20:01:14.417Z,99566.94
2018-03-29T20:03:42.407Z,99578.52
2018-03-29T20:06:09.861Z,99584.36
2018-03-29T20:08:37.328Z,99583.06
2018-03-29T20:11:04.810Z,99583.05
2018-03-29T20:13:32.266Z,99581.91
2018-03-29T20:15:59.770Z,99579.16
2018-03-29T20:18:27.246Z,99581.81
2018-03-29T20:20:55.746Z,99573.37
2018-03-29T20:23:23.256Z,99584.51
2018-03-29T20:25:50.715Z,99581.36
2018-03-29T20:28:18.193Z,99587.16
2018-03-29T20:30:45.669Z,99593.89
2018-03-29T20:33:13.570Z,99584.78
2018-03-29T20:35:41.058Z,99589.14
2018-03-29T20:38:08.657Z,99583.77
2018-03-29T20:40:36.128Z,99582.10
2018-03-29T20:43:03.598Z,99582.35
2018-03-29T20:45:31.065Z,99579.11
2018-03-29T20:47:58.518Z,99577.00
2018-03-29T20:50:26.345Z,99573.95
2018-03-29T20:52:53.818Z,99570.94
2018-03-29T20:55:21.291Z,99569.05
2018-03-29T20:57:48.777Z,99573.23
2018-03-29T21:00:16.225Z,99570.72
2018-03-29T21:02:44.002Z,99569.20
2018-03-29T21:05:11.445Z,99567.59
2018-03-29T21:07:38.894Z,99568.98
2018-03-29T21:10:06.393Z,99575.49
2018-03-29T21:12:33.854Z,99574.71
2018-03-29T21:15:01.762Z,99579.13
2018-03-29T21:17:29.234Z,99580.06
2018-03-29T21:19:56.709Z,99584.35
2018-03-29T21:22:24.178Z,99579.44
2018-03-29T21:24:51.640Z,99578.00
2018-03-29T21:27:19.209Z,99586.16
2018-03-29T21:29:46.674Z,99590.58
2018-03-29T21:32:14.141Z,99587.58
2018-03-29T21:34:41.673Z,99587.08
2018-03-29T21:37:09.121Z,99592.76
2018-03-29T21:39:36.585Z,99596.29
2018-03-29T21:42:04.071Z,99590.77
2018-03-29T21:44:31.506Z,99587.56
2018-03-29T21:46:58.972Z,99582.32
2018-03-29T21:49:26.414Z,99584.91
2018-03-29T21:51:54.128Z,99580.01
2018-03-29T21:54:21.562Z,99575.55
2018-03-29T21:56:49.030Z,99586.27
2018-03-29T21:59:16.525Z,99579.97
2018-03-29T22:01:43.969Z,99583.39
2018-03-29T22:04:11.433Z,99587.06
2018-03-29T22:06:38.890Z,99581.65
2018-03-29T22:09:06.357Z,99584.75
2018-03-29T22:11:33.842Z,99584.58
2018-03-29T22:14:01.295Z,99581.61
2018-03-29T22:16:28.906Z,99591.13
2018-03-29T22:18:56.345Z,99590.68
2018-03-29T22:21:23.793Z,99595.33
2018-03-29T22:23:51.264Z,99593.42
2018-03-29T22:26:18.702Z,99595.16
2018-03-29T22:28:46.412Z,99593.30
2018-03-29T22:31:13.851Z,99597.64
2018-03-29T22:33:41.286Z,99591.92
2018-03-29T22:36:08.758Z,99589.83
2018-03-29T22:38:36.192Z,99590.71
2018-03-29T22:41:03.836Z,99590.95
2018-03-29T22:43:31.300Z,99587.06
2018-03-29T22:45:58.734Z,99588.05
2018-03-29T22:48:26.208Z,99595.16
2018-03-29T22:50:53.645Z,99584.14
2018-03-29T22:53:21.250Z,99585.73
2018-03-29T22:55:48.697Z,99586.69
2018-03-29T22:58:16.153Z,99593.98
2018-03-29T23:00:43.617Z,99591.73
2018-03-29T23:03:11.053Z,99585.20
2018-03-29T23:05:38.524Z,99583.81
2018-03-29T23:08:05.988Z,99582.84
2018-03-29T23:10:33.446Z,99583.30
2018-03-29T23:13:00.902Z,99580.47
2018-03-29T23:15:28.355Z,99591.58
2018-03-29T23:17:55.817Z,99580.94
2018-03-29T23:20:23.290Z,99585.59
2018-03-29T23:22:50.738Z,99582.11
2018-03-29T23:25:18.217Z,99578.98
2018-03-29T23:27:45.685Z,99577.67
2018-03-29T23:30:13.215Z,99579.45
2018-03-29T23:32:40.674Z,99571.34
2018-03-29T23:35:08.109Z,99566.06
2018-03-29T23:37:35.573Z,99562.70
2018-03-29T23:40:03.008Z,99562.17
2018-03-29T23:42:30.441Z,99555.94
2018-03-29T23:44:57.910Z,99559.61
2018-03-29T23:47:25.342Z,99561.75
2018-03-29T23:49:52.802Z,99562.57
2018-03-29T23:52:20.267Z,99556.98
2018-03-29T23:54:47.707Z,99557.80
2018-03-29T23:57:15.149Z,99559.91
2018-03-29T23:59:42.609Z,99557.67
